Time;durP1;ratioP1;P1;durP2;ratioP2;P2;SDS_P1;SDS_P2;PMS_P1;PMS_P2;Temp;Humidity;BMP_temperature;BMP_pressure;BME280_temperature;BME280_humidity;BME280_pressure;Samples;Min_cycle;Max_cycle;Signal;HPM_P1;HPM_P2
2021/07/13 00:01:56;;;;;;;1999.90;999.90;;;6.70;99.90;;;;;;5073652;28;20182;-60
2021/07/13 00:04:23;;;;;;;1999.90;999.90;;;6.70;99.90;;;;;;5073553;28;20171;-41
2021/07/13 00:06:50;;;;;;;1999.90;999.90;;;6.80;99.90;;;;;;5073491;28;20637;-40
2021/07/13 00:09:19;;;;;;;1999.90;999.90;;;6.80;99.90;;;;;;5073455;28;20206;-59
2021/07/13 00:11:48;;;;;;;1999.90;999.90;;;6.80;99.90;;;;;;5073083;28;20197;-60
2021/07/13 00:14:15;;;;;;;1999.90;999.90;;;6.80;99.90;;;;;;5073524;28;20172;-40
2021/07/13 00:16:42;;;;;;;1999.90;999.90;;;6.80;99.90;;;;;;5073474;28;20641;-40
2021/07/13 00:19:09;;;;;;;1999.90;999.90;;;6.70;99.90;;;;;;5073339;28;20165;-40
2021/07/13 00:21:39;;;;;;;1999.90;999.90;;;6.70;99.90;;;;;;5073314;28;20175;-40
2021/07/13 00:24:07;;;;;;;1999.90;999.90;;;6.70;99.90;;;;;;5073236;28;20168;-39
2021/07/13 00:26:35;;;;;;;1999.90;999.90;;;6.60;99.90;;;;;;5073076;28;20183;-60
2021/07/13 00:29:03;;;;;;;1999.90;999.90;;;6.60;99.90;;;;;;5073067;28;20211;-44
2021/07/13 00:31:30;;;;;;;1999.90;999.90;;;6.70;99.90;;;;;;5073128;28;20609;-47
2021/07/13 00:33:58;;;;;;;1999.90;999.90;;;6.70;99.90;;;;;;5073091;28;20171;-40
2021/07/13 00:36:26;;;;;;;1999.90;999.90;;;6.70;99.90;;;;;;5073249;28;20204;-40
2021/07/13 00:38:52;;;;;;;1999.90;999.90;;;6.60;99.90;;;;;;5073050;28;20175;-39
2021/07/13 00:41:20;;;;;;;1999.90;999.90;;;6.70;99.90;;;;;;5071705;28;20171;-39
2021/07/13 00:43:49;;;;;;;1999.90;999.90;;;6.70;99.90;;;;;;5073084;28;20160;-40
2021/07/13 00:46:16;;;;;;;1999.90;999.90;;;6.70;99.90;;;;;;5073138;28;20208;-40
2021/07/13 00:48:43;;;;;;;1999.90;999.90;;;6.70;99.90;;;;;;5072775;28;20355;-40
2021/07/13 00:51:11;;;;;;;1999.90;999.90;;;6.80;99.90;;;;;;5072923;28;20217;-40
2021/07/13 00:53:42;;;;;;;1999.90;999.90;;;6.80;99.90;;;;;;5072923;28;21167;-40
2021/07/13 00:56:09;;;;;;;1999.90;999.90;;;6.80;99.90;;;;;;5072964;28;20160;-40
2021/07/13 00:58:36;;;;;;;1999.90;999.90;;;6.80;99.90;;;;;;5072815;28;20164;-41
2021/07/13 01:01:04;;;;;;;1999.90;999.90;;;6.70;99.90;;;;;;5072909;28;20164;-41
2021/07/13 01:03:32;;;;;;;1999.90;999.90;;;6.80;99.90;;;;;;5072168;28;20200;-40
2021/07/13 01:05:59;;;;;;;1999.90;999.90;;;6.80;99.90;;;;;;5072759;28;20168;-40
2021/07/13 01:08:54;;;;;;;1999.90;999.90;;;6.90;99.90;;;;;;5072677;28;20197;-40
2021/07/13 01:11:48;;;;;;;1999.90;999.90;;;7.10;99.90;;;;;;5072754;28;20166;-40
2021/07/13 01:14:55;;;;;;;1999.90;999.90;;;7.10;99.90;;;;;;5072874;28;20179;-40
2021/07/13 01:17:47;;;;;;;1999.90;999.90;;;7.10;99.90;;;;;;5072667;28;20251;-40
2021/07/13 01:20:35;;;;;;;1999.90;999.90;;;7.00;99.90;;;;;;5068788;28;20589;-40
2021/07/13 01:23:23;;;;;;;1999.90;999.90;;;6.90;99.90;;;;;;5072541;28;20168;-41
2021/07/13 01:26:08;;;;;;;1999.90;999.90;;;6.80;99.90;;;;;;5072748;28;20157;-41
2021/07/13 01:28:45;;;;;;;1999.90;999.90;;;6.80;99.90;;;;;;5072501;28;20206;-41
2021/07/13 01:31:17;;;;;;;1999.90;999.90;;;6.80;99.90;;;;;;5072386;28;20167;-41
2021/07/13 01:33:50;;;;;;;1999.90;999.90;;;6.90;99.90;;;;;;5072524;28;20689;-41
2021/07/13 01:36:40;;;;;;;1999.90;999.90;;;7.00;99.90;;;;;;5072583;28;20164;-50
2021/07/13 01:39:07;;;;;;;1999.90;999.90;;;6.90;99.90;;;;;;5072415;28;20161;-41
2021/07/13 01:41:34;;;;;;;1999.90;999.90;;;6.90;99.90;;;;;;5072392;28;20171;-41
2021/07/13 01:44:02;;;;;;;1999.90;999.90;;;6.80;99.90;;;;;;5072307;28;20176;-41
2021/07/13 01:46:30;;;;;;;1999.90;999.90;;;6.70;99.90;;;;;;5072219;28;20171;-41
2021/07/13 01:48:59;;;;;;;1999.90;999.90;;;6.60;99.90;;;;;;5072274;28;20245;-41
2021/07/13 01:51:27;;;;;;;1999.90;999.90;;;6.60;99.90;;;;;;5072300;28;20622;-41
2021/07/13 01:53:57;;;;;;;1999.90;999.90;;;6.60;99.90;;;;;;5072268;28;20193;-41
2021/07/13 01:56:24;;;;;;;1999.90;999.90;;;6.60;99.90;;;;;;5072245;28;20188;-41
2021/07/13 01:58:51;;;;;;;1999.90;999.90;;;6.70;99.90;;;;;;5072360;28;20171;-42
2021/07/13 02:01:22;;;;;;;1999.90;999.90;;;6.80;99.90;;;;;;5072203;28;20221;-41
2021/07/13 02:03:52;;;;;;;1999.90;999.90;;;6.80;99.90;;;;;;5072456;28;20164;-42
2021/07/13 02:06:22;;;;;;;1999.90;999.90;;;6.80;99.90;;;;;;5072518;28;20493;-42
2021/07/13 02:08:51;;;;;;;1999.90;999.90;;;6.80;99.90;;;;;;5072140;28;20674;-41
2021/07/13 02:11:19;;;;;;;1999.90;999.90;;;6.80;99.90;;;;;;5072148;28;20163;-42
2021/07/13 02:13:47;;;;;;;1999.90;999.90;;;6.70;99.90;;;;;;5071932;28;20216;-41
2021/07/13 02:16:14;;;;;;;1999.90;999.90;;;6.80;99.90;;;;;;5073492;28;20159;-41
2021/07/13 02:18:40;;;;;;;1999.90;999.90;;;6.80;99.90;;;;;;5075600;28;20168;-42
2021/07/13 02:21:09;;;;;;;1999.90;999.90;;;6.90;99.90;;;;;;5075592;28;20207;-41
2021/07/13 02:23:37;;;;;;;1999.90;999.90;;;6.90;99.90;;;;;;5075377;28;20509;-42
2021/07/13 02:26:06;;;;;;;1999.90;999.90;;;6.80;99.90;;;;;;5075459;28;20615;-41
2021/07/13 02:28:45;;;;;;;1999.90;999.90;;;6.80;99.90;;;;;;5075509;28;20696;-43
2021/07/13 02:31:36;;;;;;;1999.90;999.90;;;6.80;99.90;;;;;;5075428;28;20802;-42
2021/07/13 02:34:08;;;;;;;1999.90;999.90;;;6.70;99.90;;;;;;5075386;28;20317;-42
2021/07/13 02:36:38;;;;;;;1999.90;999.90;;;6.80;99.90;;;;;;5075237;28;20169;-44
2021/07/13 02:39:07;;;;;;;1999.90;999.90;;;6.80;99.90;;;;;;5075298;28;20180;-42
2021/07/13 02:41:36;;;;;;;1999.90;999.90;;;6.80;99.90;;;;;;5075284;28;20170;-42
2021/07/13 02:44:04;;;;;;;1999.90;999.90;;;6.70;99.90;;;;;;5075188;28;20167;-42
2021/07/13 02:46:32;;;;;;;1999.90;999.90;;;6.60;99.90;;;;;;5075104;28;20175;-42
2021/07/13 02:49:00;;;;;;;1999.90;999.90;;;6.40;99.90;;;;;;5074996;28;20204;-41
2021/07/13 02:51:29;;;;;;;1999.90;999.90;;;6.50;99.90;;;;;;5075158;28;20246;-42
2021/07/13 02:53:56;;;;;;;1999.90;999.90;;;6.30;99.90;;;;;;5075087;28;20168;-42
2021/07/13 02:56:25;;;;;;;1999.90;999.90;;;6.20;99.90;;;;;;5074951;28;20173;-42
2021/07/13 02:58:57;;;;;;;1999.90;999.90;;;6.20;99.90;;;;;;5074853;28;20192;-44
2021/07/13 03:01:24;;;;;;;1999.90;999.90;;;6.20;99.90;;;;;;5075061;28;20153;-41
2021/07/13 03:03:52;;;;;;;1999.90;999.90;;;6.30;99.90;;;;;;5074785;28;20166;-40
2021/07/13 03:06:21;;;;;;;1999.90;999.90;;;6.30;99.90;;;;;;5074519;28;20193;-41
2021/07/13 03:08:48;;;;;;;1999.90;999.90;;;6.30;99.90;;;;;;5056374;28;20243;-41
2021/07/13 03:11:16;;;;;;;1999.90;999.90;;;6.40;99.90;;;;;;5074292;28;20163;-40
2021/07/13 03:13:43;;;;;;;1999.90;999.90;;;6.40;99.90;;;;;;5073890;28;20234;-41
2021/07/13 03:16:10;;;;;;;1999.90;999.90;;;6.50;99.90;;;;;;5074174;28;20198;-41
2021/07/13 03:18:37;;;;;;;1999.90;999.90;;;6.50;99.90;;;;;;5074155;28;20261;-41
2021/07/13 03:21:06;;;;;;;1999.90;999.90;;;6.40;99.90;;;;;;5074128;28;20638;-41
2021/07/13 03:23:39;;;;;;;1999.90;999.90;;;6.50;99.90;;;;;;5074177;28;20176;-42
2021/07/13 03:26:08;;;;;;;1999.90;999.90;;;6.50;99.90;;;;;;5074032;28;20170;-42
2021/07/13 03:28:35;;;;;;;1999.90;999.90;;;6.50;99.90;;;;;;5074017;28;20213;-43
2021/07/13 03:31:03;;;;;;;1999.90;999.90;;;6.50;99.90;;;;;;5074149;28;20172;-43
2021/07/13 03:33:31;;;;;;;1999.90;999.90;;;6.50;99.90;;;;;;5074300;28;20746;-42
2021/07/13 03:35:58;;;;;;;1999.90;999.90;;;6.50;99.90;;;;;;5074271;28;20167;-41
2021/07/13 03:38:26;;;;;;;1999.90;999.90;;;6.50;99.90;;;;;;5074204;28;20262;-45
2021/07/13 03:40:53;;;;;;;1999.90;999.90;;;6.60;99.90;;;;;;5074021;28;20178;-46
2021/07/13 03:43:21;;;;;;;1999.90;999.90;;;6.60;99.90;;;;;;5073970;28;20198;-43
2021/07/13 03:45:49;;;;;;;1999.90;999.90;;;6.60;99.90;;;;;;5073829;28;20173;-43
2021/07/13 03:48:18;;;;;;;1999.90;999.90;;;6.60;99.90;;;;;;5073719;28;20196;-43
2021/07/13 03:50:45;;;;;;;1999.90;999.90;;;6.60;99.90;;;;;;5073853;28;20259;-46
2021/07/13 03:53:14;;;;;;;1999.90;999.90;;;6.50;99.90;;;;;;5073795;28;20188;-45
2021/07/13 03:55:44;;;;;;;1999.90;999.90;;;6.40;99.90;;;;;;5073540;28;20551;-43
2021/07/13 03:58:11;;;;;;;1999.90;999.90;;;6.20;99.90;;;;;;5073455;28;20213;-43
2021/07/13 04:00:38;;;;;;;1999.90;999.90;;;6.20;99.90;;;;;;5073655;28;20178;-53
2021/07/13 04:03:05;;;;;;;1999.90;999.90;;;6.10;99.90;;;;;;5073406;28;20208;-43
2021/07/13 04:05:32;;;;;;;1999.90;999.90;;;6.00;99.90;;;;;;5073404;28;20264;-43
2021/07/13 04:07:59;;;;;;;1999.90;999.90;;;6.00;99.90;;;;;;5073525;28;20207;-42
2021/07/13 04:10:26;;;;;;;1999.90;999.90;;;5.90;99.90;;;;;;5073296;28;20169;-43
2021/07/13 04:12:53;;;;;;;1999.90;999.90;;;6.00;99.90;;;;;;5073092;28;20258;-43
2021/07/13 04:15:20;;;;;;;1999.90;999.90;;;6.00;99.90;;;;;;5073279;28;20161;-44
2021/07/13 04:17:48;;;;;;;1999.90;999.90;;;6.00;99.90;;;;;;5073191;28;20178;-43
2021/07/13 04:20:15;;;;;;;1999.90;999.90;;;6.00;99.90;;;;;;5073299;28;20326;-43
2021/07/13 04:22:45;;;;;;;1999.90;999.90;;;6.00;99.90;;;;;;5073302;28;20222;-43
2021/07/13 04:25:13;;;;;;;1999.90;999.90;;;6.10;99.90;;;;;;5073212;28;20185;-43
2021/07/13 04:27:41;;;;;;;1999.90;999.90;;;6.10;99.90;;;;;;5073119;28;20192;-43
2021/07/13 04:30:09;;;;;;;1999.90;999.90;;;6.10;99.90;;;;;;5073360;28;20178;-43
2021/07/13 04:32:36;;;;;;;1999.90;999.90;;;6.20;99.90;;;;;;5073348;28;20180;-43
2021/07/13 04:35:03;;;;;;;1999.90;999.90;;;6.20;99.90;;;;;;5073157;28;20180;-43
2021/07/13 04:37:32;;;;;;;1999.90;999.90;;;6.20;99.90;;;;;;5072953;28;20205;-43
2021/07/13 04:39:59;;;;;;;1999.90;999.90;;;6.30;99.90;;;;;;5072281;28;20195;-43
2021/07/13 04:42:26;;;;;;;1999.90;999.90;;;6.30;99.90;;;;;;5072999;28;20164;-43
2021/07/13 04:44:53;;;;;;;1999.90;999.90;;;6.20;99.90;;;;;;5072876;28;20632;-43
2021/07/13 04:47:20;;;;;;;1999.90;999.90;;;6.10;99.90;;;;;;5072957;28;20194;-42
2021/07/13 04:49:46;;;;;;;1999.90;999.90;;;6.00;99.90;;;;;;5072803;28;20598;-49
2021/07/13 04:52:13;;;;;;;1999.90;999.90;;;6.00;99.90;;;;;;5072863;28;20201;-44
2021/07/13 04:54:40;;;;;;;1999.90;999.90;;;6.10;99.90;;;;;;5073107;28;20218;-42
2021/07/13 04:57:07;;;;;;;1999.90;999.90;;;6.10;99.90;;;;;;5072947;28;20168;-44
2021/07/13 04:59:34;;;;;;;1999.90;999.90;;;6.00;99.90;;;;;;5072860;28;20214;-43
2021/07/13 05:02:01;;;;;;;1999.90;999.90;;;6.00;99.90;;;;;;5072715;28;20651;-43
2021/07/13 05:04:28;;;;;;;1999.90;999.90;;;6.10;99.90;;;;;;5072676;28;20693;-43
2021/07/13 05:06:55;;;;;;;1999.90;999.90;;;6.20;99.90;;;;;;5072569;28;20249;-43
2021/07/13 05:09:22;;;;;;;1999.90;999.90;;;6.30;99.90;;;;;;5072677;28;20284;-43
2021/07/13 05:11:52;;;;;;;1999.90;999.90;;;6.30;99.90;;;;;;5072610;28;20895;-43
2021/07/13 05:14:18;;;;;;;1999.90;999.90;;;6.30;99.90;;;;;;5072675;28;20169;-43
2021/07/13 05:16:45;;;;;;;1999.90;999.90;;;6.30;99.90;;;;;;5072427;28;20183;-43
2021/07/13 05:19:14;;;;;;;1999.90;999.90;;;6.30;99.90;;;;;;5072390;28;20179;-43
2021/07/13 05:21:44;;;;;;;1999.90;999.90;;;6.40;99.90;;;;;;5072509;28;20630;-41
2021/07/13 05:24:11;;;;;;;1999.90;999.90;;;6.40;99.90;;;;;;5072132;28;20542;-41
2021/07/13 05:26:37;;;;;;;1999.90;999.90;;;6.40;99.90;;;;;;5072498;28;20540;-44
2021/07/13 05:29:06;;;;;;;1999.90;999.90;;;6.50;99.90;;;;;;5072184;28;20209;-44
2021/07/13 05:31:34;;;;;;;1999.90;999.90;;;6.50;99.90;;;;;;5072024;28;20172;-44
2021/07/13 05:34:01;;;;;;;1999.90;999.90;;;6.40;99.90;;;;;;5072033;28;20240;-43
2021/07/13 05:36:28;;;;;;;1999.90;999.90;;;6.50;99.90;;;;;;5072143;28;20160;-43
2021/07/13 05:38:55;;;;;;;1999.90;999.90;;;6.60;99.90;;;;;;5072215;28;20172;-43
2021/07/13 05:41:24;;;;;;;1999.90;999.90;;;6.70;99.90;;;;;;5071950;28;20178;-48
2021/07/13 05:43:51;;;;;;;1999.90;999.90;;;6.70;99.90;;;;;;5071987;28;20224;-43
2021/07/13 05:46:18;;;;;;;1999.90;999.90;;;6.60;99.90;;;;;;5071904;28;20220;-48
2021/07/13 05:48:45;;;;;;;1999.90;999.90;;;6.60;99.90;;;;;;5071824;28;20229;-42
2021/07/13 05:51:13;;;;;;;1999.90;999.90;;;6.40;99.90;;;;;;5074760;28;20193;-43
2021/07/13 05:53:40;;;;;;;1999.90;999.90;;;6.40;99.90;;;;;;5075451;28;20171;-43
2021/07/13 05:56:10;;;;;;;1999.90;999.90;;;6.50;99.90;;;;;;5074944;28;20165;-43
2021/07/13 05:58:38;;;;;;;1999.90;999.90;;;6.30;99.90;;;;;;5074404;28;20176;-42
2021/07/13 06:01:06;;;;;;;1999.90;999.90;;;6.40;99.90;;;;;;5074837;28;20177;-42
2021/07/13 06:03:33;;;;;;;1999.90;999.90;;;6.30;99.90;;;;;;5074991;28;20988;-54
2021/07/13 06:06:00;;;;;;;1999.90;999.90;;;6.30;99.90;;;;;;5075053;28;20259;-41
2021/07/13 06:08:27;;;;;;;1999.90;999.90;;;6.40;99.90;;;;;;5075137;28;20203;-45
2021/07/13 06:10:54;;;;;;;1999.90;999.90;;;6.40;99.90;;;;;;5074899;28;20175;-53
2021/07/13 06:13:21;;;;;;;1999.90;999.90;;;6.40;99.90;;;;;;5074056;28;20674;-44
2021/07/13 06:15:48;;;;;;;1999.90;999.90;;;6.40;99.90;;;;;;5073048;28;20517;-46
2021/07/13 06:18:19;;;;;;;1999.90;999.90;;;6.30;99.90;;;;;;5074713;28;20622;-41
2021/07/13 06:20:47;;;;;;;1999.90;999.90;;;6.40;99.90;;;;;;5074377;28;20219;-58
2021/07/13 06:23:14;;;;;;;1999.90;999.90;;;6.30;99.90;;;;;;5074728;28;20168;-44
2021/07/13 06:25:42;;;;;;;1999.90;999.90;;;6.30;99.90;;;;;;5057260;28;20177;-50
2021/07/13 06:28:10;;;;;;;1999.90;999.90;;;6.50;99.90;;;;;;5074089;28;20241;-43
2021/07/13 06:30:36;;;;;;;1999.90;999.90;;;6.70;99.90;;;;;;5074557;28;20184;-45
2021/07/13 06:33:03;;;;;;;1999.90;999.90;;;6.70;99.90;;;;;;5074415;28;20186;-42
2021/07/13 06:35:30;;;;;;;1999.90;999.90;;;6.60;99.90;;;;;;5074415;28;20160;-41
2021/07/13 06:37:59;;;;;;;1999.90;999.90;;;6.50;99.90;;;;;;5074235;28;20193;-42
2021/07/13 06:40:27;;;;;;;1999.90;999.90;;;6.40;99.90;;;;;;5074210;28;20247;-42
2021/07/13 06:42:54;;;;;;;1999.90;999.90;;;6.40;99.90;;;;;;5074314;28;20224;-44
2021/07/13 06:45:20;;;;;;;1999.90;999.90;;;6.40;99.90;;;;;;5072962;28;20263;-42
2021/07/13 06:47:48;;;;;;;1999.90;999.90;;;7.30;99.90;;;;;;5074062;28;20292;-42
2021/07/13 06:50:15;;;;;;;1999.90;999.90;;;7.20;99.90;;;;;;5074268;28;20213;-42
2021/07/13 06:52:42;;;;;;;1999.90;999.90;;;7.20;99.90;;;;;;5074218;28;20229;-45
2021/07/13 06:55:10;;;;;;;1999.90;999.90;;;7.60;99.90;;;;;;5073973;28;20183;-44
2021/07/13 06:57:37;;;;;;;1999.90;999.90;;;8.00;99.90;;;;;;5073958;28;20206;-43
2021/07/13 07:00:07;;;;;;;1999.90;999.90;;;7.80;99.90;;;;;;5074137;28;20179;-44
2021/07/13 07:02:34;;;;;;;1999.90;999.90;;;7.70;99.90;;;;;;5073160;28;20171;-46
2021/07/13 07:05:00;;;;;;;1999.90;999.90;;;7.50;99.90;;;;;;5074112;28;20207;-48
2021/07/13 07:07:27;;;;;;;1999.90;999.90;;;7.30;99.90;;;;;;5073858;28;20167;-45
2021/07/13 07:09:54;;;;;;;1999.90;999.90;;;7.20;99.90;;;;;;5074001;28;20253;-43
2021/07/13 07:12:21;;;;;;;1999.90;999.90;;;7.20;99.90;;;;;;5073324;28;20238;-41
2021/07/13 07:14:48;;;;;;;1999.90;999.90;;;7.10;99.90;;;;;;5073542;28;20185;-41
2021/07/13 07:17:15;;;;;;;1999.90;999.90;;;7.10;99.90;;;;;;5074035;28;20648;-43
2021/07/13 07:19:41;;;;;;;1999.90;999.90;;;7.20;99.90;;;;;;5073594;28;20182;-41
2021/07/13 07:22:08;;;;;;;1999.90;999.90;;;7.20;99.90;;;;;;5073657;28;20638;-42
2021/07/13 07:24:35;;;;;;;1999.90;999.90;;;7.30;99.90;;;;;;5073768;28;20171;-47
2021/07/13 07:27:02;;;;;;;1999.90;999.90;;;7.40;99.90;;;;;;5073727;28;20178;-48
2021/07/13 07:29:28;;;;;;;1999.90;999.90;;;7.50;99.90;;;;;;5073699;28;20253;-44
2021/07/13 07:31:55;;;;;;;1999.90;999.90;;;7.70;99.90;;;;;;5073778;28;20169;-45
2021/07/13 07:34:22;;;;;;;1999.90;999.90;;;8.00;99.90;;;;;;5073436;28;20179;-54
2021/07/13 07:36:49;;;;;;;1999.90;999.90;;;8.20;99.90;;;;;;5074003;28;20229;-54
2021/07/13 07:39:15;;;;;;;1999.90;999.90;;;8.30;99.90;;;;;;5073492;28;20242;-46
2021/07/13 07:41:42;;;;;;;1999.90;999.90;;;8.10;99.90;;;;;;5073504;28;20566;-44
2021/07/13 07:44:09;;;;;;;1999.90;999.90;;;8.20;99.90;;;;;;5073197;28;20195;-46
2021/07/13 07:46:41;;;;;;;1999.90;999.90;;;8.30;99.90;;;;;;5073600;28;20202;-54
2021/07/13 07:49:08;;;;;;;1999.90;999.90;;;8.20;99.90;;;;;;5073166;28;20529;-56
2021/07/13 07:51:35;;;;;;;1999.90;999.90;;;8.10;99.90;;;;;;5073057;28;20218;-55
2021/07/13 07:54:02;;;;;;;1999.90;999.90;;;8.10;99.90;;;;;;5073007;28;20169;-45
2021/07/13 07:56:29;;;;;;;1999.90;999.90;;;8.20;99.90;;;;;;5073374;28;20251;-49
2021/07/13 07:58:56;;;;;;;1999.90;999.90;;;8.30;99.90;;;;;;5073089;28;20664;-55
2021/07/13 08:01:22;;;;;;;1999.90;999.90;;;8.30;99.90;;;;;;5073230;28;20171;-45
2021/07/13 08:03:49;;;;;;;1999.90;999.90;;;8.20;99.90;;;;;;5073092;28;20174;-55
2021/07/13 08:06:16;;;;;;;1999.90;999.90;;;8.30;99.90;;;;;;5073236;28;20182;-48
2021/07/13 08:08:43;;;;;;;1999.90;999.90;;;8.40;99.90;;;;;;5072647;28;20203;-47
2021/07/13 08:11:11;;;;;;;1999.90;999.90;;;8.70;99.90;;;;;;5072702;28;20221;-54
2021/07/13 08:13:37;;;;;;;1999.90;999.90;;;8.60;99.90;;;;;;5072155;28;20223;-47
2021/07/13 08:16:04;;;;;;;1999.90;999.90;;;8.70;99.90;;;;;;5072066;28;20168;-54
2021/07/13 08:18:31;;;;;;;1999.90;999.90;;;8.90;99.90;;;;;;5071969;28;20214;-45
2021/07/13 08:20:59;;;;;;;1999.90;999.90;;;9.30;99.90;;;;;;5072369;28;20247;-49
2021/07/13 08:23:26;;;;;;;1999.90;999.90;;;10.00;99.90;;;;;;5072331;28;20638;-50
2021/07/13 08:25:52;;;;;;;1999.90;999.90;;;10.10;99.90;;;;;;5072637;28;20173;-44
2021/07/13 08:28:19;;;;;;;1999.90;999.90;;;10.00;99.90;;;;;;5072305;28;20210;-51
2021/07/13 08:30:47;;;;;;;1999.90;999.90;;;9.90;99.90;;;;;;5072854;28;20168;-48
2021/07/13 08:33:13;;;;;;;1999.90;999.90;;;9.80;99.90;;;;;;5054686;28;20196;-44
2021/07/13 08:35:40;;;;;;;1999.90;999.90;;;9.80;99.90;;;;;;5072406;28;20565;-43
2021/07/13 08:38:07;;;;;;;1999.90;999.90;;;9.80;99.90;;;;;;5072256;28;20260;-48
2021/07/13 08:40:34;;;;;;;1999.90;999.90;;;10.60;99.90;;;;;;5071935;28;20594;-45
2021/07/13 08:43:01;;;;;;;1999.90;999.90;;;10.40;99.90;;;;;;5071871;28;20179;-48
2021/07/13 08:45:28;;;;;;;1999.90;999.90;;;10.30;99.90;;;;;;5054922;28;20195;-44
2021/07/13 08:47:55;;;;;;;1999.90;999.90;;;10.00;99.90;;;;;;5072471;28;20560;-46
2021/07/13 08:50:22;;;;;;;1999.90;999.90;;;10.00;99.90;;;;;;5071877;28;20184;-44
2021/07/13 08:52:49;;;;;;;1999.90;999.90;;;10.00;99.90;;;;;;5071633;28;20180;-47
2021/07/13 08:55:16;;;;;;;1999.90;999.90;;;10.10;99.90;;;;;;5071775;28;20169;-44
2021/07/13 08:57:45;;;;;;;1999.90;999.90;;;10.30;99.90;;;;;;5071868;28;20217;-48
2021/07/13 09:00:18;;;;;;;1999.90;999.90;;;11.60;99.90;;;;;;5059317;28;20652;-53
2021/07/13 09:03:16;;;;;;;1999.90;999.90;;;11.40;99.90;;;;;;5032331;28;20170;-51
2021/07/13 09:05:47;;;;;;;1999.90;999.90;;;11.10;99.90;;;;;;5015724;28;20209;-47
2021/07/13 09:08:24;;;;;;;1999.90;999.90;;;11.30;99.90;;;;;;5031684;28;20274;-47
2021/07/13 09:11:13;;;;;;;1999.90;999.90;;;11.60;99.90;;;;;;5032010;28;20174;-46
2021/07/13 09:14:03;;;;;;;1999.90;999.90;;;11.70;99.90;;;;;;5030998;28;20332;-47
2021/07/13 09:16:33;;;;;;;1999.90;999.90;;;11.30;99.90;;;;;;5014121;28;20246;-47
2021/07/13 09:19:00;;;;;;;1999.90;999.90;;;10.90;99.90;;;;;;5013182;28;20184;-49
2021/07/13 09:21:34;;;;;;;1999.90;999.90;;;10.50;99.90;;;;;;5041773;28;20307;-48
2021/07/13 09:24:04;;;;;;;1999.90;999.90;;;10.30;99.90;;;;;;5050520;28;20161;-45
2021/07/13 09:26:42;;;;;;;1999.90;999.90;;;10.50;99.90;;;;;;5054684;28;20158;-45
2021/07/13 09:29:28;;;;;;;1999.90;999.90;;;11.20;99.90;;;;;;5054845;28;20543;-57
2021/07/13 09:31:56;;;;;;;1999.90;999.90;;;11.10;99.90;;;;;;5055105;28;20177;-48
2021/07/13 09:34:23;;;;;;;1999.90;999.90;;;11.10;99.90;;;;;;5055035;28;20213;-47
2021/07/13 09:36:56;;;;;;;1999.90;999.90;;;11.10;99.90;;;;;;5054339;28;20640;-45
2021/07/13 09:39:26;;;;;;;1999.90;999.90;;;10.80;99.90;;;;;;5054345;28;20165;-47
2021/07/13 09:41:54;;;;;;;1999.90;999.90;;;10.70;99.90;;;;;;5054596;28;20569;-45
2021/07/13 09:44:24;;;;;;;1999.90;999.90;;;10.60;99.90;;;;;;5054261;28;20169;-48
2021/07/13 09:46:52;;;;;;;1999.90;999.90;;;10.50;99.90;;;;;;5054072;28;20169;-45
2021/07/13 09:49:27;;;;;;;1999.90;999.90;;;10.50;99.90;;;;;;5054595;28;20287;-45
2021/07/13 09:51:56;;;;;;;1999.90;999.90;;;10.60;99.90;;;;;;5054354;28;20185;-44
2021/07/13 09:54:34;;;;;;;1999.90;999.90;;;10.50;99.90;;;;;;5053863;28;20377;-44
2021/07/13 09:57:06;;;;;;;1999.90;999.90;;;10.50;99.90;;;;;;5054453;28;20576;-46
2021/07/13 09:59:33;;;;;;;1999.90;999.90;;;10.50;99.90;;;;;;5054046;28;20158;-45
2021/07/13 10:02:05;;;;;;;1999.90;999.90;;;10.70;99.90;;;;;;5053781;28;20193;-45
2021/07/13 10:04:34;;;;;;;1999.90;999.90;;;10.70;99.90;;;;;;5054035;28;20231;-57
2021/07/13 10:07:08;;;;;;;1999.90;999.90;;;11.20;99.90;;;;;;5053861;28;20166;-46
2021/07/13 10:10:03;;;;;;;1999.90;999.90;;;12.20;99.90;;;;;;5053722;28;20219;-46
2021/07/13 10:12:32;;;;;;;1999.90;999.90;;;12.70;99.90;;;;;;5052602;28;20256;-45
2021/07/13 10:15:00;;;;;;;1999.90;999.90;;;12.30;99.90;;;;;;5039698;28;20223;-45
2021/07/13 10:17:32;;;;;;;1999.90;999.90;;;12.10;99.90;;;;;;5032842;28;20228;-46
2021/07/13 10:20:06;;;;;;;1999.90;999.90;;;11.90;99.90;;;;;;5033715;28;20166;-46
2021/07/13 10:22:35;;;;;;;1999.90;999.90;;;11.80;99.90;;;;;;5033195;28;20153;-47
2021/07/13 10:25:03;;;;;;;1999.90;999.90;;;11.80;99.90;;;;;;5041270;28;20180;-45
2021/07/13 10:27:32;;;;;;;1999.90;999.90;;;12.00;99.90;;;;;;5051168;28;20247;-46
2021/07/13 10:30:07;;;;;;;1999.90;999.90;;;11.90;99.90;;;;;;5038443;28;20567;-48
2021/07/13 10:32:39;;;;;;;1999.90;999.90;;;11.80;99.90;;;;;;5046631;28;20177;-55
2021/07/13 10:35:23;;;;;;;1999.90;999.90;;;11.60;99.90;;;;;;5053399;28;20628;-50
2021/07/13 10:37:58;;;;;;;1999.90;999.90;;;11.40;99.90;;;;;;5049328;28;20667;-49
2021/07/13 10:40:28;;;;;;;1999.90;999.90;;;11.30;99.90;;;;;;5043706;28;20161;-48
2021/07/13 10:43:02;;;;;;;1999.90;999.90;;;11.30;99.90;;;;;;5052172;28;20624;-48
2021/07/13 10:45:35;;;;;;;1999.90;999.90;;;11.30;99.90;;;;;;5036199;28;20168;-47
2021/07/13 10:48:02;;;;;;;1999.90;999.90;;;11.50;99.90;;;;;;5041379;28;20633;-49
2021/07/13 10:50:29;;;;;;;1999.90;999.90;;;11.70;99.90;;;;;;5033070;28;20537;-53
2021/07/13 10:52:59;;;;;;;1999.90;999.90;;;11.90;99.90;;;;;;5033148;28;20594;-45
2021/07/13 10:55:32;;;;;;;1999.90;999.90;;;11.90;99.90;;;;;;5032726;28;20710;-52
2021/07/13 10:58:11;;;;;;;1999.90;999.90;;;11.90;99.90;;;;;;5033630;28;20261;-46
2021/07/13 12:02:37;;;;;;;1999.90;999.90;;;13.90;99.90;;;;;;5013796;28;20546;-45
2021/07/13 12:05:04;;;;;;;1999.90;999.90;;;14.10;99.90;;;;;;5013624;28;20179;-49
2021/07/13 12:07:31;;;;;;;1999.90;999.90;;;14.20;99.90;;;;;;5013956;28;20175;-47
2021/07/13 12:10:05;;;;;;;1999.90;999.90;;;14.20;99.90;;;;;;5013490;28;20213;-54
2021/07/13 12:12:38;;;;;;;1999.90;999.90;;;13.90;99.90;;;;;;5012220;28;20209;-52
2021/07/13 12:15:05;;;;;;;1999.90;999.90;;;13.50;99.90;;;;;;5013731;28;20170;-52
2021/07/13 12:17:32;;;;;;;1999.90;999.90;;;13.40;99.90;;;;;;5013437;28;20622;-50
2021/07/13 12:20:00;;;;;;;1999.90;999.90;;;13.40;99.90;;;;;;5013260;28;20163;-45
2021/07/13 12:22:27;;;;;;;1999.90;999.90;;;14.20;99.90;;;;;;5013127;28;20163;-43
2021/07/13 12:25:05;;;;;;;1999.90;999.90;;;14.00;99.90;;;;;;5012582;28;20185;-46
2021/07/13 12:27:35;;;;;;;1999.90;999.90;;;13.60;99.90;;;;;;5013052;28;20205;-47
2021/07/13 12:30:14;;;;;;;1999.90;999.90;;;13.40;99.90;;;;;;5013129;28;20229;-44
2021/07/13 12:32:43;;;;;;;1999.90;999.90;;;13.10;99.90;;;;;;5013097;28;20159;-46
2021/07/13 12:35:11;;;;;;;1999.90;999.90;;;12.90;99.90;;;;;;5013022;28;20183;-44
2021/07/13 12:37:39;;;;;;;1999.90;999.90;;;12.80;99.90;;;;;;5012971;28;20244;-45
2021/07/13 12:40:08;;;;;;;1999.90;999.90;;;12.90;99.90;;;;;;5013470;28;20170;-46
2021/07/13 12:42:46;;;;;;;1999.90;999.90;;;13.00;99.90;;;;;;5013325;28;20173;-44
2021/07/13 12:45:21;;;;;;;1999.90;999.90;;;13.20;99.90;;;;;;5013061;28;20209;-45
2021/07/13 12:47:54;;;;;;;1999.90;999.90;;;13.20;99.90;;;;;;5013016;28;20201;-44
2021/07/13 12:50:25;;;;;;;1999.90;999.90;;;13.30;99.90;;;;;;5013068;28;20285;-49
2021/07/13 12:53:15;;;;;;;1999.90;999.90;;;13.30;99.90;;;;;;5012823;28;20170;-46
2021/07/13 12:55:49;;;;;;;1999.90;999.90;;;13.30;99.90;;;;;;5012885;28;20222;-44
2021/07/13 12:58:15;;;;;;;1999.90;999.90;;;13.20;99.90;;;;;;5012683;28;20182;-44
2021/07/13 13:00:47;;;;;;;1999.90;999.90;;;13.10;99.90;;;;;;5021538;28;20304;-44
2021/07/13 13:03:25;;;;;;;1999.90;999.90;;;13.20;99.90;;;;;;5052401;28;20527;-44
2021/07/13 13:05:57;;;;;;;1999.90;999.90;;;13.00;99.90;;;;;;5052611;28;20157;-47
2021/07/13 13:08:34;;;;;;;1999.90;999.90;;;12.90;99.90;;;;;;5052167;28;20204;-44
2021/07/13 13:11:04;;;;;;;1999.90;999.90;;;12.90;99.90;;;;;;5052298;28;20203;-49
2021/07/13 13:13:33;;;;;;;1999.90;999.90;;;13.00;99.90;;;;;;5052303;28;20231;-44
2021/07/13 13:16:04;;;;;;;1999.90;999.90;;;13.10;99.90;;;;;;5052144;28;20192;-47
2021/07/13 13:18:31;;;;;;;1999.90;999.90;;;13.20;99.90;;;;;;5052427;28;20200;-48
2021/07/13 13:20:59;;;;;;;1999.90;999.90;;;13.20;99.90;;;;;;5052541;28;20161;-46